Impacts TAF Board
For situational awareness. Not to be used for flight planning purposes.
IDs:

KMSY - New Orleans/Armstron, LA, US

Issued at 2320 UTC 05 Dec 2019
Updated at 0119 UTC 06 Dec 2019
Potential Impact None Slight Moderate High
Time0053Z 06/02Z 06/03Z 06/04Z 06/05Z 06/06Z 06/07Z 06/08Z 06/09Z 06/10Z 06/11Z 06/12Z 06/13Z 06/14Z>>
Type OBS PRVL PRVL PRVL PRVL PRVL PRVL PRVL PRVL PRVL PRVL PRVL PRVL PRVL
VIS 10 >6 >6 >6 >6 >6 >6 >6 >6 >6 >6 >6 >6 >6
CIG 280 250 250 250 250 250 250 250 250 250 250 250 250 250
Cover BKN BKN BKN BKN BKN BKN BKN BKN BKN BKN BKN BKN BKN BKN
FltCat VFR VFR VFR VFR VFR VFR VFR VFR VFR VFR VFR VFR VFR VFR
WX -- -- -- -- -- -- -- -- -- -- -- -- -- --
WDir 120 VRB VRB VRB VRB VRB VRB VRB VRB VRB VRB VRB VRB VRB
WSpd 7 4 4 4 4 4 4 4 4 4 4 4 4 4
WGst -- -- -- -- -- -- -- -- -- -- -- -- -- --
Raw TAF
KMSY 052320Z 0600/0706 VRB04KT P6SM FEW130 BKN250
  FM061500 17006KT P6SM VCSH SCT035 BKN040
  FM061800 20008KT P6SM FEW025 SCT070
  FM070000 VRB05KT P6SM BKN020
  FM070300 VRB05KT P6SM SCT008 BKN015


Raw METAR
KMSY 060053Z 12007KT 10SM BKN280 14/08 A3011 RMK AO2 SLP199 T01440078
KMSY 052353Z 12007KT 10SM BKN280 16/07 A3010 RMK AO2 SLP197 T01610072 10222 20161 53005
KMSY 052253Z 13007KT 10SM FEW010 FEW100 FEW150 BKN250 18/06 A3010 RMK AO2 SLP194 FU FEW010 T01780061

METAR Board
Radar Display
Forecast Discussion
For situational awareness. Not to be used for flight planning purposes.